Terminal Aerodrome Forecast
Issued by NWS

Home | Current Version | Previous Version | Text Only | Print | Product List | Glossary On
Versions: 1 2 3 4 5 6 7 8 9 10 11
000
FTUS45 KVEF 281100
TAFDAG
TAF
KDAG 281120Z 2812/0112 24019KT P6SM FEW200
     FM281600 25026G36KT P6SM BKN250
     FM282100 24018G28KT P6SM BKN250
     FM010800 25009KT P6SM SCT150 BKN200=

USA.gov is the U.S. government's official web portal to all federal, state and local government web resources and services.